createdAt,value
2022-11-20T00:00:54.267Z,76
2022-11-20T00:02:01.670Z,76
2022-11-20T00:03:09.815Z,76
2022-11-20T00:04:18.811Z,76
2022-11-20T00:05:26.419Z,76
2022-11-20T00:06:33.419Z,76
2022-11-20T00:07:40.628Z,76
2022-11-20T00:08:48.143Z,76
2022-11-20T00:09:55.640Z,76
2022-11-20T00:11:03.027Z,76
2022-11-20T00:12:16.337Z,76
2022-11-20T00:13:24.896Z,76
2022-11-20T00:14:32.247Z,76
2022-11-20T00:15:39.455Z,76
2022-11-20T00:16:46.503Z,76
2022-11-20T00:17:53.587Z,76
2022-11-20T00:19:00.681Z,75
2022-11-20T00:20:07.827Z,76
2022-11-20T00:21:15.568Z,75
2022-11-20T00:22:22.580Z,76
2022-11-20T00:23:29.813Z,76
2022-11-20T00:24:41.734Z,75
2022-11-20T00:25:45.208Z,75
2022-11-20T00:26:52.443Z,75
2022-11-20T00:27:59.816Z,76
2022-11-20T00:29:07.095Z,76
2022-11-20T00:30:15.110Z,76
2022-11-20T00:31:21.767Z,76
2022-11-20T00:32:28.975Z,75
2022-11-20T00:33:36.307Z,76
2022-11-20T00:34:43.410Z,75
2022-11-20T00:35:50.427Z,76
2022-11-20T00:36:57.571Z,76
2022-11-20T00:38:04.680Z,76
2022-11-20T00:39:11.889Z,75
2022-11-20T00:40:20.263Z,75
2022-11-20T00:41:28.695Z,76
2022-11-20T00:42:37.448Z,76
2022-11-20T00:43:44.454Z,75
2022-11-20T00:44:52.523Z,75
2022-11-20T00:46:00.000Z,76
2022-11-20T00:47:10.134Z,76
2022-11-20T00:48:17.267Z,76
2022-11-20T00:49:24.541Z,76
2022-11-20T00:50:31.387Z,76
2022-11-20T00:51:38.639Z,75
2022-11-20T00:52:46.162Z,75
2022-11-20T00:53:53.558Z,75
2022-11-20T00:55:00.651Z,75
2022-11-20T00:56:08.327Z,75
2022-11-20T00:57:15.354Z,75
2022-11-20T00:58:22.543Z,75
2022-11-20T00:59:29.750Z,75
2022-11-20T01:00:37.066Z,75
2022-11-20T01:01:45.326Z,75
2022-11-20T01:02:52.626Z,75
2022-11-20T01:04:00.104Z,75
2022-11-20T01:05:07.503Z,75
2022-11-20T01:06:14.882Z,76
2022-11-20T01:07:27.455Z,76
2022-11-20T01:08:34.566Z,76
2022-11-20T01:09:41.906Z,76
2022-11-20T01:10:49.414Z,76
2022-11-20T01:11:57.407Z,76
2022-11-20T01:13:04.590Z,77
2022-11-20T01:14:16.966Z,77
2022-11-20T01:15:24.211Z,77
2022-11-20T01:16:31.278Z,77
2022-11-20T01:17:39.387Z,76
2022-11-20T01:18:46.860Z,76
2022-11-20T01:19:54.263Z,76
2022-11-20T01:21:01.339Z,76
2022-11-20T01:22:11.673Z,76
2022-11-20T01:23:19.688Z,77
2022-11-20T01:24:26.965Z,77
2022-11-20T01:25:34.107Z,77
2022-11-20T01:26:41.179Z,77
2022-11-20T01:27:48.218Z,77
2022-11-20T01:28:55.306Z,77
2022-11-20T01:30:02.550Z,77
2022-11-20T01:31:10.122Z,77
2022-11-20T01:32:19.714Z,77
2022-11-20T01:33:26.998Z,77
2022-11-20T01:34:34.007Z,77
2022-11-20T01:35:42.168Z,76
2022-11-20T01:36:49.415Z,76
2022-11-20T01:37:56.538Z,76
2022-11-20T01:39:03.764Z,76
2022-11-20T01:40:16.139Z,76
2022-11-20T01:41:23.087Z,76
2022-11-20T01:42:35.418Z,76
2022-11-20T01:43:50.926Z,77
2022-11-20T01:44:58.534Z,77
2022-11-20T01:46:05.915Z,77
2022-11-20T01:47:18.423Z,78
2022-11-20T01:48:33.851Z,78
2022-11-20T01:49:41.356Z,78
2022-11-20T01:50:48.714Z,78
2022-11-20T01:51:56.610Z,78
2022-11-20T01:53:03.930Z,78
2022-11-20T01:54:11.310Z,78
2022-11-20T01:55:23.324Z,78
2022-11-20T01:56:30.535Z,78
2022-11-20T01:57:37.566Z,78
2022-11-20T01:58:44.633Z,78
2022-11-20T01:59:51.851Z,78
2022-11-20T02:00:59.408Z,78
2022-11-20T02:02:06.639Z,79
2022-11-20T02:03:14.131Z,79
2022-11-20T02:04:20.950Z,79
2022-11-20T02:05:28.036Z,79
2022-11-20T02:06:43.034Z,79
2022-11-20T02:07:55.186Z,79
2022-11-20T02:09:02.202Z,79
2022-11-20T02:10:09.818Z,79
2022-11-20T02:11:17.040Z,79
2022-11-20T02:12:24.183Z,79
2022-11-20T02:13:36.527Z,79
2022-11-20T02:14:49.139Z,79
2022-11-20T02:15:56.422Z,79
2022-11-20T02:17:03.560Z,79
2022-11-20T02:18:11.670Z,79
2022-11-20T02:19:19.546Z,81
2022-11-20T02:20:29.144Z,81
2022-11-20T02:21:36.603Z,81
2022-11-20T02:22:49.631Z,80
2022-11-20T02:24:05.446Z,80
2022-11-20T02:25:15.458Z,80
2022-11-20T02:26:22.708Z,80
2022-11-20T02:27:29.720Z,80
2022-11-20T02:28:37.000Z,80
2022-11-20T02:29:44.108Z,80
2022-11-20T02:30:56.278Z,80
2022-11-20T02:32:04.346Z,80
2022-11-20T02:33:11.748Z,80
2022-11-20T02:34:18.730Z,80
2022-11-20T02:35:26.075Z,80
2022-11-20T02:36:33.362Z,80
2022-11-20T02:37:40.619Z,80
2022-11-20T02:38:47.763Z,80
2022-11-20T02:39:54.843Z,80
2022-11-20T02:41:02.190Z,80
2022-11-20T02:42:09.263Z,80
2022-11-20T02:43:17.378Z,80
2022-11-20T02:44:24.704Z,80
2022-11-20T02:45:31.714Z,80
2022-11-20T02:46:38.762Z,80
2022-11-20T02:47:45.986Z,80
2022-11-20T02:48:53.094Z,80
2022-11-20T02:50:00.297Z,80
2022-11-20T02:51:07.246Z,80
2022-11-20T02:52:14.507Z,80
2022-11-20T02:53:21.611Z,80
2022-11-20T02:54:28.953Z,80
2022-11-20T02:55:35.955Z,79
2022-11-20T02:56:43.147Z,79
2022-11-20T02:57:50.227Z,79
2022-11-20T02:58:57.383Z,79
2022-11-20T03:00:04.719Z,78
2022-11-20T03:01:12.586Z,78
2022-11-20T03:02:20.003Z,78
2022-11-20T03:03:27.522Z,78
2022-11-20T03:04:34.627Z,78
2022-11-20T03:05:41.754Z,78
2022-11-20T03:06:48.798Z,78
2022-11-20T03:07:56.003Z,78
2022-11-20T03:09:03.226Z,78
2022-11-20T03:10:10.191Z,78
2022-11-20T03:11:17.375Z,78
2022-11-20T03:12:24.495Z,78
2022-11-20T03:13:31.775Z,78
2022-11-20T03:14:38.717Z,78
2022-11-20T03:15:45.946Z,78
2022-11-20T03:16:53.008Z,78
2022-11-20T03:18:00.091Z,78
2022-11-20T03:19:07.279Z,78
2022-11-20T03:20:15.706Z,78
2022-11-20T03:21:22.815Z,78
2022-11-20T03:22:29.951Z,78
2022-11-20T03:23:36.791Z,78
2022-11-20T03:24:43.992Z,78
2022-11-20T03:25:51.238Z,78
2022-11-20T03:26:58.218Z,78
2022-11-20T03:28:05.421Z,78
2022-11-20T03:29:12.510Z,78
2022-11-20T03:30:19.830Z,78
2022-11-20T03:31:26.754Z,78
2022-11-20T03:32:35.614Z,78
2022-11-20T03:33:42.560Z,78
2022-11-20T03:34:49.771Z,78
2022-11-20T03:35:56.839Z,78
2022-11-20T03:37:07.083Z,78
2022-11-20T03:38:14.406Z,78
2022-11-20T03:39:21.736Z,79
2022-11-20T03:40:28.530Z,79
2022-11-20T03:41:36.738Z,79
2022-11-20T03:42:43.940Z,79
2022-11-20T03:43:51.111Z,79
2022-11-20T03:45:00.643Z,79
2022-11-20T03:46:07.834Z,79
2022-11-20T03:47:15.132Z,79
2022-11-20T03:48:22.194Z,79
2022-11-20T03:49:29.238Z,79
2022-11-20T03:50:36.410Z,78
2022-11-20T03:51:43.586Z,78
2022-11-20T03:52:50.827Z,78
2022-11-20T03:53:57.818Z,78
2022-11-20T03:55:05.000Z,79
2022-11-20T03:56:12.164Z,79
2022-11-20T03:57:20.250Z,79
2022-11-20T03:58:27.394Z,79
2022-11-20T03:59:34.876Z,79
2022-11-20T04:00:42.639Z,80
2022-11-20T04:01:50.420Z,80
2022-11-20T04:02:58.674Z,80
2022-11-20T04:04:06.011Z,80
2022-11-20T04:05:13.585Z,81
2022-11-20T04:06:21.518Z,81
2022-11-20T04:07:28.713Z,81
2022-11-20T04:08:35.713Z,81
2022-11-20T04:09:43.550Z,81
2022-11-20T04:10:50.607Z,81
2022-11-20T04:11:57.670Z,81
2022-11-20T04:13:04.974Z,81
2022-11-20T04:14:12.150Z,81
2022-11-20T04:15:19.134Z,81
2022-11-20T04:16:26.258Z,81
2022-11-20T04:17:33.442Z,81
2022-11-20T04:18:41.295Z,81
2022-11-20T04:19:48.658Z,81
2022-11-20T04:20:55.655Z,81
2022-11-20T04:22:02.866Z,81
2022-11-20T04:23:10.082Z,81
2022-11-20T04:24:19.810Z,81
2022-11-20T04:25:26.826Z,81
2022-11-20T04:26:34.190Z,81
2022-11-20T04:27:41.186Z,81
2022-11-20T04:28:48.443Z,81
2022-11-20T04:29:55.426Z,81
2022-11-20T04:31:02.643Z,81
2022-11-20T04:32:14.754Z,81
2022-11-20T04:33:21.954Z,81
2022-11-20T04:34:29.046Z,81
2022-11-20T04:35:36.226Z,81
2022-11-20T04:36:43.274Z,81
2022-11-20T04:37:50.625Z,81
2022-11-20T04:38:57.594Z,81
2022-11-20T04:40:04.662Z,81
2022-11-20T04:41:12.181Z,81
2022-11-20T04:42:19.470Z,81
2022-11-20T04:43:32.459Z,81
2022-11-20T04:44:39.862Z,81
2022-11-20T04:45:46.993Z,81
2022-11-20T04:46:58.114Z,80
2022-11-20T04:48:05.394Z,80
2022-11-20T04:49:12.833Z,80
2022-11-20T04:50:19.795Z,79
2022-11-20T04:51:27.009Z,79
2022-11-20T04:52:34.446Z,79
2022-11-20T04:53:43.334Z,79
2022-11-20T04:54:50.315Z,79
2022-11-20T04:56:00.858Z,79
2022-11-20T04:57:13.067Z,79
2022-11-20T04:58:15.169Z,79
2022-11-20T04:59:22.778Z,79
2022-11-20T05:00:29.437Z,79
2022-11-20T05:01:36.624Z,78
2022-11-20T05:02:43.669Z,78
2022-11-20T05:03:50.926Z,78
2022-11-20T05:04:58.535Z,79
2022-11-20T05:06:06.073Z,79
2022-11-20T05:07:14.554Z,79
2022-11-20T05:08:21.517Z,79
2022-11-20T05:09:28.606Z,79
2022-11-20T05:10:36.181Z,79
2022-11-20T05:11:43.407Z,79
2022-11-20T05:12:50.801Z,79
2022-11-20T05:13:57.629Z,79
2022-11-20T05:15:04.874Z,79
2022-11-20T05:16:12.157Z,79
2022-11-20T05:17:19.054Z,79
2022-11-20T05:18:26.355Z,79
2022-11-20T05:19:33.574Z,80
2022-11-20T05:20:40.613Z,80
2022-11-20T05:21:49.502Z,79
2022-11-20T05:22:56.860Z,79
2022-11-20T05:24:03.934Z,79
2022-11-20T05:25:10.994Z,79
2022-11-20T05:26:18.269Z,79
2022-11-20T05:27:25.650Z,79
2022-11-20T05:28:32.626Z,79
2022-11-20T05:29:39.765Z,79
2022-11-20T05:30:46.954Z,79
2022-11-20T05:31:54.118Z,79
2022-11-20T05:33:01.033Z,79
2022-11-20T05:34:08.146Z,79
2022-11-20T05:35:15.315Z,79
2022-11-20T05:36:22.465Z,79
2022-11-20T05:37:29.588Z,79
2022-11-20T05:38:36.869Z,79
2022-11-20T05:39:43.868Z,79
2022-11-20T05:40:51.293Z,79
2022-11-20T05:41:58.646Z,79
2022-11-20T05:43:10.913Z,79
2022-11-20T05:44:18.254Z,79
2022-11-20T05:45:25.778Z,79
2022-11-20T05:46:32.786Z,79
2022-11-20T05:47:39.929Z,79
2022-11-20T05:48:46.990Z,79
2022-11-20T05:49:55.310Z,79
2022-11-20T05:51:02.210Z,79
2022-11-20T05:52:09.422Z,79
2022-11-20T05:53:16.565Z,79
2022-11-20T05:54:24.689Z,79
2022-11-20T05:55:31.881Z,79
2022-11-20T05:56:38.974Z,79
2022-11-20T05:57:46.179Z,79
2022-11-20T05:58:53.368Z,79
2022-11-20T06:00:00.429Z,79
2022-11-20T06:01:07.585Z,79
2022-11-20T06:02:20.749Z,79
2022-11-20T06:03:28.809Z,79
2022-11-20T06:04:36.933Z,79
2022-11-20T06:05:44.187Z,79
2022-11-20T06:06:51.378Z,79
2022-11-20T06:07:58.477Z,79
2022-11-20T06:09:06.662Z,79
2022-11-20T06:10:13.752Z,79
2022-11-20T06:11:21.118Z,79
2022-11-20T06:12:28.886Z,79
2022-11-20T06:13:40.727Z,79
2022-11-20T06:14:43.462Z,79
2022-11-20T06:15:50.661Z,79
2022-11-20T06:16:57.895Z,79
2022-11-20T06:18:04.939Z,79
2022-11-20T06:19:11.997Z,79
2022-11-20T06:20:19.207Z,79
2022-11-20T06:21:26.197Z,79
2022-11-20T06:22:33.455Z,79
2022-11-20T06:23:40.653Z,79
2022-11-20T06:24:47.697Z,79
2022-11-20T06:25:55.630Z,79
2022-11-20T06:27:02.497Z,79
2022-11-20T06:28:09.533Z,79
2022-11-20T06:29:16.935Z,79
2022-11-20T06:30:23.769Z,79
2022-11-20T06:31:30.957Z,79
2022-11-20T06:32:37.990Z,79
2022-11-20T06:33:45.173Z,79
2022-11-20T06:34:52.309Z,79
2022-11-20T06:36:00.993Z,79
2022-11-20T06:37:06.853Z,79
2022-11-20T06:38:13.770Z,79
2022-11-20T06:39:21.215Z,79
2022-11-20T06:40:28.158Z,79
2022-11-20T06:41:35.413Z,79
2022-11-20T06:42:43.858Z,79
2022-11-20T06:43:51.222Z,79
2022-11-20T06:44:58.201Z,79
2022-11-20T06:46:05.734Z,79
2022-11-20T06:47:12.937Z,79
2022-11-20T06:48:20.126Z,79
2022-11-20T06:49:27.483Z,79
2022-11-20T06:50:34.929Z,79
2022-11-20T06:51:41.970Z,79
2022-11-20T06:52:53.557Z,79
2022-11-20T06:54:01.398Z,79
2022-11-20T06:55:08.725Z,79
2022-11-20T06:56:16.481Z,79
2022-11-20T06:57:23.737Z,79
2022-11-20T06:58:30.933Z,79
2022-11-20T06:59:38.085Z,79
2022-11-20T07:00:46.361Z,79
2022-11-20T07:01:53.421Z,79
2022-11-20T07:03:00.473Z,79
2022-11-20T07:04:13.382Z,79
2022-11-20T07:05:20.409Z,79
2022-11-20T07:06:28.509Z,79
2022-11-20T07:07:35.649Z,79
2022-11-20T07:08:43.712Z,79
2022-11-20T07:09:51.341Z,79
2022-11-20T07:10:58.734Z,79
2022-11-20T07:12:06.062Z,80
2022-11-20T07:13:13.169Z,80
2022-11-20T07:14:21.305Z,80
2022-11-20T07:15:28.641Z,80
2022-11-20T07:16:35.697Z,80
2022-11-20T07:17:42.897Z,80
2022-11-20T07:18:51.118Z,80
2022-11-20T07:19:57.008Z,80
2022-11-20T07:21:05.041Z,80
2022-11-20T07:22:11.953Z,80
2022-11-20T07:23:18.973Z,80
2022-11-20T07:24:26.401Z,80
2022-11-20T07:25:33.938Z,80
2022-11-20T07:26:42.105Z,80
2022-11-20T07:27:49.114Z,80
2022-11-20T07:28:57.442Z,81
2022-11-20T07:30:04.897Z,81
2022-11-20T07:31:16.004Z,81
2022-11-20T07:32:20.051Z,81
2022-11-20T07:33:27.521Z,81
2022-11-20T07:34:34.684Z,81
2022-11-20T07:35:41.665Z,81
2022-11-20T07:36:49.645Z,81
2022-11-20T07:37:57.254Z,81
2022-11-20T07:39:07.065Z,81
2022-11-20T07:40:14.441Z,81
2022-11-20T07:41:21.309Z,81
2022-11-20T07:42:28.470Z,81
2022-11-20T07:43:40.931Z,82
2022-11-20T07:44:44.626Z,82
2022-11-20T07:45:53.061Z,82
2022-11-20T07:47:00.417Z,81
2022-11-20T07:48:07.626Z,82
2022-11-20T07:49:14.874Z,82
2022-11-20T07:50:23.754Z,82
2022-11-20T07:51:30.789Z,82
2022-11-20T07:52:39.629Z,82
2022-11-20T07:53:47.933Z,83
2022-11-20T07:54:55.298Z,83
2022-11-20T07:56:02.489Z,82
2022-11-20T07:57:09.834Z,82
2022-11-20T07:58:16.997Z,82
2022-11-20T07:59:24.488Z,82
2022-11-20T08:00:31.595Z,83
2022-11-20T08:01:39.861Z,82
2022-11-20T08:02:47.253Z,82
2022-11-20T08:03:54.190Z,82
2022-11-20T08:05:01.301Z,83
2022-11-20T08:06:08.903Z,83
2022-11-20T08:07:16.170Z,83
2022-11-20T08:08:23.414Z,83
2022-11-20T08:09:31.574Z,83
2022-11-20T08:10:38.578Z,83
2022-11-20T08:11:46.082Z,84
2022-11-20T08:12:59.493Z,83
2022-11-20T08:14:11.745Z,83
2022-11-20T08:15:18.765Z,83
2022-11-20T08:16:26.073Z,83
2022-11-20T08:17:33.141Z,83
2022-11-20T08:18:41.181Z,83
2022-11-20T08:19:49.977Z,83
2022-11-20T08:20:57.109Z,83
2022-11-20T08:22:08.077Z,82
2022-11-20T08:23:15.406Z,82
2022-11-20T08:24:23.999Z,83
2022-11-20T08:25:31.569Z,83
2022-11-20T08:26:38.816Z,83
2022-11-20T08:27:46.101Z,82
2022-11-20T08:28:53.154Z,82
2022-11-20T08:30:00.540Z,83
2022-11-20T08:31:08.246Z,82
2022-11-20T08:32:15.597Z,82
2022-11-20T08:33:25.410Z,82
2022-11-20T08:34:32.914Z,81
2022-11-20T08:35:40.869Z,81
2022-11-20T08:36:49.413Z,81
2022-11-20T08:37:58.777Z,82
2022-11-20T08:39:07.657Z,82
2022-11-20T08:40:19.663Z,81
2022-11-20T08:41:24.925Z,81
2022-11-20T08:42:32.107Z,81
2022-11-20T08:43:40.689Z,81
2022-11-20T08:44:47.877Z,81
2022-11-20T08:45:55.387Z,81
2022-11-20T08:47:03.534Z,81
2022-11-20T08:48:11.673Z,81
2022-11-20T08:49:18.917Z,81
2022-11-20T08:50:26.910Z,81
2022-11-20T08:51:37.441Z,81
2022-11-20T08:52:44.975Z,82
2022-11-20T08:53:52.203Z,82
2022-11-20T08:54:59.589Z,81
2022-11-20T08:56:07.682Z,81
2022-11-20T08:57:15.259Z,80
2022-11-20T08:58:22.477Z,80
2022-11-20T08:59:58.595Z,80
2022-11-20T09:00:37.321Z,81
2022-11-20T09:01:44.573Z,80
2022-11-20T09:02:53.097Z,80
2022-11-20T09:04:00.460Z,81
2022-11-20T09:05:08.814Z,80
2022-11-20T09:06:15.979Z,81
2022-11-20T09:07:23.247Z,81
2022-11-20T09:08:31.407Z,80
2022-11-20T09:09:40.572Z,81
2022-11-20T09:10:47.853Z,81
2022-11-20T09:11:59.262Z,81
2022-11-20T09:13:06.446Z,81
2022-11-20T09:14:13.629Z,80
2022-11-20T09:15:20.718Z,80
2022-11-20T09:16:28.126Z,80
2022-11-20T09:17:35.692Z,80
2022-11-20T09:18:44.592Z,80
2022-11-20T09:19:51.918Z,80
2022-11-20T09:20:59.583Z,79
2022-11-20T09:22:07.434Z,79
2022-11-20T09:23:15.377Z,79
2022-11-20T09:24:22.544Z,79
2022-11-20T09:25:30.485Z,80
2022-11-20T09:26:37.623Z,80
2022-11-20T09:27:45.790Z,80
2022-11-20T09:28:56.836Z,80
2022-11-20T09:30:01.006Z,80
2022-11-20T09:31:08.329Z,80
2022-11-20T09:32:24.529Z,79
2022-11-20T09:33:32.745Z,79
2022-11-20T09:34:40.301Z,79
2022-11-20T09:35:47.524Z,79
2022-11-20T09:36:55.432Z,78
2022-11-20T09:38:03.293Z,78
2022-11-20T09:39:10.626Z,78
2022-11-20T09:40:18.092Z,79
2022-11-20T09:41:25.676Z,78
2022-11-20T09:42:43.325Z,78
2022-11-20T09:43:58.288Z,78
2022-11-20T09:45:11.533Z,78
2022-11-20T09:46:33.077Z,78
2022-11-20T09:47:41.310Z,78
2022-11-20T09:48:57.093Z,78
2022-11-20T09:50:14.913Z,77
2022-11-20T09:51:32.545Z,77
2022-11-20T09:52:52.465Z,77
2022-11-20T09:54:04.472Z,77
2022-11-20T09:55:19.468Z,76
2022-11-20T09:56:27.245Z,75
2022-11-20T09:57:35.204Z,76
2022-11-20T09:58:43.530Z,75
2022-11-20T09:59:52.068Z,75
2022-11-20T10:01:02.382Z,75
2022-11-20T10:02:13.545Z,75
2022-11-20T10:03:23.889Z,75
2022-11-20T10:04:41.517Z,75
2022-11-20T10:05:48.820Z,74
2022-11-20T10:07:17.424Z,74
2022-11-20T10:08:12.046Z,75
2022-11-20T10:09:24.344Z,76
2022-11-20T10:10:34.254Z,77
2022-11-20T10:11:47.447Z,77
2022-11-20T10:13:00.852Z,77
2022-11-20T10:14:15.885Z,77
2022-11-20T10:15:30.885Z,77
2022-11-20T10:16:41.105Z,77
2022-11-20T10:17:52.264Z,77
2022-11-20T10:19:04.691Z,77
2022-11-20T10:20:18.108Z,77
2022-11-20T10:21:26.200Z,77
2022-11-20T10:22:43.785Z,77
2022-11-20T10:23:58.817Z,78
2022-11-20T10:25:16.240Z,78
2022-11-20T10:26:23.804Z,77
2022-11-20T10:27:36.233Z,78
2022-11-20T10:28:57.342Z,78
2022-11-20T10:30:04.576Z,78
2022-11-20T10:31:14.178Z,77
2022-11-20T10:32:31.520Z,77
2022-11-20T10:33:57.396Z,77
2022-11-20T10:34:46.302Z,77
2022-11-20T10:35:58.781Z,77
2022-11-20T10:37:13.332Z,78
2022-11-20T10:38:23.572Z,78
2022-11-20T10:39:36.221Z,78
2022-11-20T10:40:44.445Z,78
2022-11-20T10:41:57.629Z,78
2022-11-20T10:43:04.678Z,78
2022-11-20T10:44:15.193Z,77
2022-11-20T10:45:32.896Z,77
2022-11-20T10:46:45.518Z,77
2022-11-20T10:50:22.358Z,76
2022-11-20T10:51:28.524Z,76
2022-11-20T10:52:36.976Z,76
2022-11-20T10:53:55.141Z,77
2022-11-20T10:55:07.464Z,77
2022-11-20T10:56:24.865Z,77
2022-11-20T10:57:42.990Z,77
2022-11-20T10:58:58.748Z,77
2022-11-20T11:00:15.981Z,77
2022-11-20T11:01:23.773Z,77
2022-11-20T11:02:31.149Z,77
2022-11-20T11:03:44.765Z,77
2022-11-20T11:04:51.761Z,81
2022-11-20T11:05:59.168Z,81
2022-11-20T11:07:11.641Z,81
2022-11-20T11:08:25.253Z,81
2022-11-20T11:09:35.336Z,77
2022-11-20T11:10:48.352Z,78
2022-11-20T11:12:05.843Z,78
2022-11-20T11:13:11.773Z,77
2022-11-20T11:14:24.309Z,78
2022-11-20T11:15:31.677Z,77
2022-11-20T11:16:42.796Z,77
2022-11-20T11:17:56.086Z,77
2022-11-20T11:19:03.384Z,77
2022-11-20T11:20:16.602Z,78
2022-11-20T11:21:28.105Z,78
2022-11-20T11:22:35.641Z,78
2022-11-20T11:23:48.420Z,78
2022-11-20T11:25:06.099Z,79
2022-11-20T11:26:13.684Z,78
2022-11-20T11:27:24.469Z,78
2022-11-20T11:28:32.145Z,77
2022-11-20T11:29:39.972Z,78
2022-11-20T11:30:48.428Z,77
2022-11-20T11:31:56.777Z,77
2022-11-20T11:33:09.160Z,76
2022-11-20T11:34:17.417Z,77
2022-11-20T11:35:24.725Z,76
2022-11-20T11:36:32.017Z,76
2022-11-20T11:37:40.224Z,77
2022-11-20T11:38:47.866Z,77
2022-11-20T11:40:16.359Z,77
2022-11-20T11:41:02.845Z,77
2022-11-20T11:42:11.209Z,77
2022-11-20T11:43:18.696Z,77
2022-11-20T11:44:31.365Z,77
2022-11-20T11:45:43.948Z,77
2022-11-20T11:46:52.020Z,77
2022-11-20T11:48:00.478Z,77
2022-11-20T11:49:07.924Z,77
2022-11-20T11:50:15.169Z,77
2022-11-20T11:51:26.107Z,77
2022-11-20T11:52:33.596Z,77
2022-11-20T11:53:51.184Z,76
2022-11-20T11:55:00.129Z,76
2022-11-20T11:56:07.348Z,76
2022-11-20T11:57:15.749Z,77
2022-11-20T11:58:30.744Z,76
2022-11-20T11:59:44.064Z,76
2022-11-20T12:01:00.845Z,75
2022-11-20T12:02:14.255Z,75
2022-11-20T12:03:29.613Z,75
2022-11-20T12:04:43.280Z,75
2022-11-20T12:05:53.692Z,76
2022-11-20T12:07:13.177Z,75
2022-11-20T12:08:17.905Z,75
2022-11-20T12:09:35.137Z,75
2022-11-20T12:10:42.712Z,75
2022-11-20T12:12:00.839Z,75
2022-11-20T12:13:16.268Z,75
2022-11-20T12:14:33.997Z,75
2022-11-20T12:15:45.952Z,75
2022-11-20T12:16:53.469Z,75
2022-11-20T12:18:00.448Z,75
2022-11-20T12:19:07.820Z,75
2022-11-20T12:20:15.450Z,75
2022-11-20T12:21:22.912Z,75
2022-11-20T12:22:36.416Z,75
2022-11-20T12:23:48.965Z,75
2022-11-20T12:24:59.068Z,75
2022-11-20T12:26:15.719Z,75
2022-11-20T12:27:25.645Z,75
2022-11-20T12:28:41.169Z,75
2022-11-20T12:29:53.706Z,74
2022-11-20T12:31:06.386Z,74
2022-11-20T12:32:24.074Z,74
2022-11-20T12:33:42.293Z,74
2022-11-20T12:34:55.492Z,75
2022-11-20T12:36:13.140Z,75
2022-11-20T12:37:30.061Z,74
2022-11-20T12:38:47.794Z,73
2022-11-20T12:40:05.712Z,73
2022-11-20T12:41:23.370Z,73
2022-11-20T12:42:46.772Z,74
2022-11-20T12:44:02.213Z,73
2022-11-20T12:45:23.076Z,73
2022-11-20T12:46:33.401Z,73
2022-11-20T12:47:43.448Z,73
2022-11-20T12:49:01.325Z,72
2022-11-20T12:50:15.078Z,73
2022-11-20T12:51:27.800Z,73
2022-11-20T12:52:47.801Z,72
2022-11-20T12:54:00.233Z,72
2022-11-20T12:55:12.797Z,72
2022-11-20T12:56:30.832Z,72
2022-11-20T12:57:45.970Z,72
2022-11-20T12:58:58.000Z,72
2022-11-20T13:00:13.168Z,73
2022-11-20T13:01:22.961Z,73
2022-11-20T13:02:43.884Z,73
2022-11-20T13:04:06.445Z,73
2022-11-20T13:05:21.609Z,71
2022-11-20T13:06:40.768Z,72
2022-11-20T13:07:48.306Z,72
2022-11-20T13:08:56.257Z,72
2022-11-20T13:10:10.218Z,73
2022-11-20T13:11:24.777Z,73
2022-11-20T13:12:37.907Z,73
2022-11-20T13:13:45.148Z,74
2022-11-20T13:15:03.240Z,73
2022-11-20T13:16:20.813Z,74
2022-11-20T13:17:37.251Z,74
2022-11-20T13:18:53.556Z,74
2022-11-20T13:20:01.734Z,74
2022-11-20T13:21:09.092Z,74
2022-11-20T13:22:22.328Z,75
2022-11-20T13:23:37.937Z,75
2022-11-20T13:24:45.389Z,75
2022-11-20T13:25:53.969Z,75
2022-11-20T13:27:11.636Z,75
2022-11-20T13:28:18.964Z,75
2022-11-20T13:29:26.376Z,75
2022-11-20T13:30:33.528Z,75
2022-11-20T13:31:40.622Z,75
2022-11-20T13:32:49.552Z,75
2022-11-20T13:34:01.846Z,75
2022-11-20T13:35:09.960Z,75
2022-11-20T13:36:17.646Z,75
2022-11-20T13:37:28.803Z,75
2022-11-20T13:38:40.248Z,75
2022-11-20T13:39:48.344Z,75
2022-11-20T13:40:55.548Z,75
2022-11-20T13:42:03.441Z,75
2022-11-20T13:43:16.007Z,75
2022-11-20T13:44:27.033Z,75
2022-11-20T13:45:35.832Z,75
2022-11-20T13:46:42.926Z,75
2022-11-20T13:47:50.608Z,75
2022-11-20T13:48:57.817Z,75
2022-11-20T13:50:04.989Z,75
2022-11-20T13:51:12.079Z,75
2022-11-20T13:52:30.572Z,75
2022-11-20T13:53:46.416Z,76
2022-11-20T13:54:59.254Z,76
2022-11-20T13:56:17.204Z,76
2022-11-20T13:57:29.286Z,75
2022-11-20T13:58:39.723Z,76
2022-11-20T13:59:55.745Z,76
2022-11-20T14:01:03.981Z,76
2022-11-20T14:02:18.847Z,76
2022-11-20T14:03:51.014Z,75
2022-11-20T14:04:33.980Z,75
2022-11-20T14:05:41.920Z,76
2022-11-20T14:06:59.164Z,75
2022-11-20T14:08:06.328Z,75
2022-11-20T14:09:13.627Z,77
2022-11-20T14:10:31.941Z,77
2022-11-20T14:11:36.543Z,78
2022-11-20T14:12:44.203Z,78
2022-11-20T14:13:51.443Z,78
2022-11-20T14:14:59.486Z,78
2022-11-20T14:16:07.727Z,78
2022-11-20T14:17:15.306Z,78
2022-11-20T14:18:22.328Z,79
2022-11-20T14:19:29.384Z,79
2022-11-20T14:20:36.447Z,79
2022-11-20T14:21:43.943Z,79
2022-11-20T14:22:53.851Z,79
2022-11-20T14:24:01.135Z,79
2022-11-20T14:25:11.738Z,79
2022-11-20T14:26:19.004Z,79
2022-11-20T14:27:26.344Z,80
2022-11-20T14:28:33.630Z,80
2022-11-20T14:29:41.608Z,79
2022-11-20T14:30:49.064Z,79
2022-11-20T14:31:56.686Z,80
2022-11-20T14:33:03.851Z,80
2022-11-20T14:34:12.247Z,79
2022-11-20T14:35:25.150Z,80
2022-11-20T14:36:32.563Z,80
2022-11-20T14:37:39.790Z,79
2022-11-20T14:38:46.923Z,80
2022-11-20T14:39:54.143Z,80
2022-11-20T14:41:01.362Z,80
2022-11-20T14:42:11.174Z,80
2022-11-20T14:43:21.423Z,80
2022-11-20T14:44:29.127Z,80
2022-11-20T14:45:36.475Z,80
2022-11-20T14:46:43.627Z,80
2022-11-20T14:47:50.795Z,80
2022-11-20T14:48:58.699Z,80
2022-11-20T14:50:09.738Z,80
2022-11-20T14:51:15.715Z,80
2022-11-20T14:52:32.970Z,80
2022-11-20T14:53:40.208Z,81
2022-11-20T14:54:47.136Z,80
2022-11-20T14:55:58.739Z,81
2022-11-20T14:57:02.486Z,82
2022-11-20T14:58:10.044Z,81
2022-11-20T14:59:25.344Z,82
2022-11-20T15:00:32.786Z,82
2022-11-20T15:01:40.017Z,82
2022-11-20T15:02:47.223Z,82
2022-11-20T15:03:54.837Z,82
2022-11-20T15:05:10.156Z,82
2022-11-20T15:06:17.530Z,82
2022-11-20T15:07:26.288Z,83
2022-11-20T15:08:36.326Z,82
2022-11-20T15:09:43.742Z,83
2022-11-20T15:10:51.150Z,83
2022-11-20T15:11:58.274Z,83
2022-11-20T15:13:11.390Z,83
2022-11-20T15:14:16.213Z,83
2022-11-20T15:15:23.762Z,83
2022-11-20T15:16:42.255Z,83
2022-11-20T15:17:49.971Z,83
2022-11-20T15:18:57.402Z,83
2022-11-20T15:20:04.795Z,83
2022-11-20T15:21:17.979Z,83
2022-11-20T15:22:28.474Z,83
2022-11-20T15:23:35.786Z,83
2022-11-20T15:24:44.419Z,84
2022-11-20T15:25:51.478Z,84
2022-11-20T15:26:58.922Z,83
2022-11-20T15:28:06.686Z,83
2022-11-20T15:29:24.566Z,83
2022-11-20T15:30:33.259Z,84
2022-11-20T15:31:40.950Z,83
2022-11-20T15:32:48.019Z,83
2022-11-20T15:33:55.271Z,84
2022-11-20T15:35:02.210Z,83
2022-11-20T15:36:10.063Z,83
2022-11-20T15:37:17.382Z,83
2022-11-20T15:38:24.714Z,83
2022-11-20T15:39:32.606Z,83
2022-11-20T15:40:39.950Z,83
2022-11-20T15:41:47.331Z,83
2022-11-20T15:42:54.894Z,84
2022-11-20T15:44:07.117Z,83
2022-11-20T15:45:14.380Z,84
2022-11-20T15:46:21.286Z,84
2022-11-20T15:47:28.414Z,83
2022-11-20T15:48:35.638Z,84
2022-11-20T15:49:42.733Z,83
2022-11-20T15:50:49.964Z,83
2022-11-20T15:51:56.984Z,84
2022-11-20T15:53:04.260Z,84
2022-11-20T15:54:11.272Z,84
2022-11-20T15:55:21.698Z,84
2022-11-20T15:56:29.766Z,84
2022-11-20T15:57:36.842Z,84
2022-11-20T15:58:44.186Z,84
2022-11-20T15:59:51.763Z,84
2022-11-20T16:00:58.811Z,84
2022-11-20T16:02:06.051Z,84
2022-11-20T16:03:13.694Z,84
2022-11-20T16:04:21.805Z,84
2022-11-20T16:05:29.099Z,84
2022-11-20T16:06:37.611Z,84
2022-11-20T16:07:44.815Z,85
2022-11-20T16:08:51.807Z,84
2022-11-20T16:09:59.909Z,85
2022-11-20T16:11:07.242Z,85
2022-11-20T16:12:17.628Z,85
2022-11-20T16:13:29.974Z,85
2022-11-20T16:14:42.578Z,85
2022-11-20T16:15:54.946Z,85
2022-11-20T16:17:02.443Z,85
2022-11-20T16:18:09.666Z,85
2022-11-20T16:19:16.797Z,85
2022-11-20T16:20:24.058Z,85
2022-11-20T16:21:31.149Z,85
2022-11-20T16:22:38.940Z,85
2022-11-20T16:23:46.370Z,85
2022-11-20T16:24:53.427Z,85
2022-11-20T16:26:00.791Z,85